Hauptseite
METAR-TAF:

METAR-TAF

Flughäfen :

Flughafen Paris-Beauvais-Tillé

Beauvais, Frankreich

Breite: 49-28N, Länge: 002-07E, Höhe: 109 m

Beobachtung

Neuester Wetterbericht von vor 16 Minuten, um 04:30 UTC
Wind 4 kt aus Ost
Temperatur 2°C
Luftfeuchtigkeit 93%
Luftdruck 1020 hPa
Sichtweite: 7000 m

METAR: LFOB 170430Z AUTO 10004KT 7000 NSC 02/01 Q1020 TEMPO 3000 BR

Zeit: 05:46 (04:46 UTC)

Prognose

Neuester Wetterbericht von vor 5 Stunden und 46 Minuten, um 23:00 UTC
Gültige Prognose vom 17 um 00 UTC bis 17 um 24 UTC
Wind 2 kt aus unterschiedlichen Richtungen
Sichtweite: 8000 m
Zeitweise
vom 17 um 01 UTC bis 17 um 08 UTC
Sichtweite: 3000 m
feuchter Dunst
Übergehend zu
vom 17 um 08 UTC bis 17 um 11 UTC
Wind 10 kt aus Süd
Übergehend zu
vom 17 um 22 UTC bis 17 um 24 UTC
Sichtweite: 3000 m
feuchter Dunst

TAF: LFOB 162300Z 1700/1724 VRB02KT 8000 NSC TEMPO 1701/1708 3000 BR BECMG 1708/1711 17010KT BECMG 1722/1724 3000 BR

Wetterbeobachtungen und Prognosen von mehr als 4000 Flughäfen (METAR und TAF Bericht).

Die verfügbaren Stationen werden durch gelbe und rote Markierungen auf der Karte dargestellt.

Führen Sie die Maus auf sie, um den Namen der Station zu sehen.

Darauf klicken, um die Beobachtung von Wetterbeobachtungen und Prognosen zu sehen.

Um die Karte zu ändern : klicken Sie auf den grünen Tasten mit einem schwarzen Kreuz Zum Vergrößern, auf den grünen Button mit einem Gedankenstrich zu verkleinern, oder auf die grünen Pfeile für benachbarte Karten.


METAR-TAF: